El Tempranillo — PI6362 — position and weather

sailwx.info

Track history (hours):
 
Tides and Currents Weather Stations Pressure Air Temp Water Temp Dewpoint Dewpoint Depression Visibility Wind Speed Wind Dir Waves Ship Positions

El Tempranillo

Last reported at 2018-Apr-15 11:31 UTC. Time now 2018-Apr-23 09:50 UTC.
Position N 52°42' E 005°18'.

Length 14 m.

Type: Cargo ship. MMSI: 244770790.

Date/timePositionNaut miles runAvg speedWind from/ knotsBaromVisibWave heightAir tempDewpointWater temp
2018-Apr-15 11:31N 52°42' E 005°18'0 0.0
2018-Apr-15 11:28N 52°42' E 005°18'2 3.7
2018-Apr-15 10:59N 52°43' E 005°21'3 7.1
2018-Apr-15 10:30N 52°45' E 005°25'4 7.1
2018-Apr-15 10:00N 52°47' E 005°31'3 7.0
2018-Apr-15 09:30N 52°49' E 005°35'4 6.7
2018-Apr-15 08:54N 52°50' E 005°42'1 0.1
2018-Apr-15 01:09N 52°50' E 005°43'0 0.0
2018-Apr-14 21:39N 52°50' E 005°43'0 0.0
2018-Apr-14 12:48N 52°50' E 005°43'2 6.6
2018-Apr-14 12:27N 52°50' E 005°39'3 7.4
2018-Apr-14 12:00N 52°48' E 005°34'3 5.1
2018-Apr-14 11:30N 52°47' E 005°30'2 3.2
2018-Apr-14 11:00N 52°46' E 005°28'2 3.8
2018-Apr-14 10:30N 52°45' E 005°25'2 3.9
2018-Apr-14 10:00N 52°44' E 005°23'2 4.2
2018-Apr-14 09:30N 52°43' E 005°20'1 2.2
2018-Apr-14 08:59N 52°42' E 005°18'0 0.0
2018-Apr-14 08:29N 52°42' E 005°18'  
Track history (hours):
 
Tides and Currents Weather Stations Pressure Air Temp Water Temp Dewpoint Dewpoint Depression Visibility Wind Speed Wind Dir Waves Ship Positions

El Tempranillo

Last reported at 2018-Apr-15 11:31 UTC. Time now 2018-Apr-23 09:50 UTC.
Position N 52°42' E 005°18'.

Length 14 m.

Type: Cargo ship. MMSI: 244770790.

Date/timePositionNaut miles runAvg speedWind from/ knotsBaromVisibWave heightAir tempDewpointWater temp
2018-Apr-15 11:31N 52°42' E 005°18'0 0.0
2018-Apr-15 11:28N 52°42' E 005°18'2 3.7
2018-Apr-15 10:59N 52°43' E 005°21'3 7.1
2018-Apr-15 10:30N 52°45' E 005°25'4 7.1
2018-Apr-15 10:00N 52°47' E 005°31'3 7.0
2018-Apr-15 09:30N 52°49' E 005°35'4 6.7
2018-Apr-15 08:54N 52°50' E 005°42'1 0.1
2018-Apr-15 01:09N 52°50' E 005°43'0 0.0
2018-Apr-14 21:39N 52°50' E 005°43'0 0.0
2018-Apr-14 12:48N 52°50' E 005°43'2 6.6
2018-Apr-14 12:27N 52°50' E 005°39'3 7.4
2018-Apr-14 12:00N 52°48' E 005°34'3 5.1
2018-Apr-14 11:30N 52°47' E 005°30'2 3.2
2018-Apr-14 11:00N 52°46' E 005°28'2 3.8
2018-Apr-14 10:30N 52°45' E 005°25'2 3.9
2018-Apr-14 10:00N 52°44' E 005°23'2 4.2
2018-Apr-14 09:30N 52°43' E 005°20'1 2.2
2018-Apr-14 08:59N 52°42' E 005°18'0 0.0
2018-Apr-14 08:29N 52°42' E 005°18'  

Dump ship's entire track history